Terminal Aerodrome Forecast
Issued by NWS Chicago, IL

Home | Current Version | Previous Version | Text Only | Print | Product List | Glossary Off
Versions: 1 2 3 4 5 6 7 8 9 10 11 12 13 14 15 16 17 18 19 20 21 22 23 24 25

338
FTUS43 KLOT 052330
TAFRFD
TAF
KRFD 052330Z 0600/0624 18011KT 1 1/2SM BR OVC003
     FM060300 16006KT 1/2SM FZFG VV002
     FM061500 26008KT 4SM BR OVC006=

USA.gov is the U.S. government's official web portal to all federal, state and local government web resources and services.